createdAt,value
2023-04-16T00:01:36.262Z,10.77
2023-04-16T00:04:03.842Z,4.55
2023-04-16T00:06:31.845Z,4.35
2023-04-16T00:08:58.736Z,6.40
2023-04-16T00:11:25.627Z,5.35
2023-04-16T00:13:52.447Z,10.10
2023-04-16T00:16:19.279Z,5.32
2023-04-16T00:18:46.569Z,4.85
2023-04-16T00:21:13.401Z,7.38
2023-04-16T00:23:40.481Z,8.20
2023-04-16T00:26:08.249Z,8.02
2023-04-16T00:28:35.203Z,6.07
2023-04-16T00:31:02.215Z,6.25
2023-04-16T00:33:30.211Z,7.43
2023-04-16T00:35:57.158Z,6.97
2023-04-16T00:38:24.088Z,5.82
2023-04-16T00:40:51.078Z,7.68
2023-04-16T00:43:23.060Z,11.05
2023-04-16T00:45:49.868Z,11.30
2023-04-16T00:48:16.789Z,9.68
2023-04-16T00:50:43.662Z,7.78
2023-04-16T00:53:10.508Z,6.57
2023-04-16T00:55:37.475Z,9.85
2023-04-16T00:58:04.273Z,6.95
2023-04-16T01:00:31.196Z,8.55
2023-04-16T01:02:58.792Z,7.57
2023-04-16T01:05:25.947Z,8.40
2023-04-16T01:07:52.806Z,8.13
2023-04-16T01:10:19.728Z,9.30
2023-04-16T01:12:46.652Z,9.48
2023-04-16T01:15:13.544Z,9.23
2023-04-16T01:17:41.321Z,7.20
2023-04-16T01:20:08.411Z,10.38
2023-04-16T01:22:35.323Z,7.72
2023-04-16T01:25:02.206Z,9.35
2023-04-16T01:27:29.440Z,9.55
2023-04-16T01:29:56.424Z,9.45
2023-04-16T01:32:33.075Z,8.88
2023-04-16T01:34:59.910Z,10.27
2023-04-16T01:37:26.786Z,7.97
2023-04-16T01:39:54.049Z,8.68
2023-04-16T01:42:20.881Z,8.60
2023-04-16T01:44:49.256Z,9.98
2023-04-16T01:47:16.428Z,9.13
2023-04-16T01:49:45.656Z,9.40
2023-04-16T01:52:12.470Z,8.27
2023-04-16T01:54:39.297Z,11.27
2023-04-16T01:57:06.107Z,9.65
2023-04-16T01:59:33.149Z,12.30
2023-04-16T02:02:07.175Z,9.25
2023-04-16T02:04:34.082Z,14.07
2023-04-16T02:07:00.884Z,10.73
2023-04-16T02:09:27.763Z,8.63
2023-04-16T02:11:55.248Z,8.52
2023-04-16T02:14:25.480Z,7.32
2023-04-16T02:16:52.536Z,8.35
2023-04-16T02:19:36.403Z,8.00
2023-04-16T02:22:03.608Z,9.57
2023-04-16T02:24:30.607Z,7.75
2023-04-16T02:26:59.116Z,11.38
2023-04-16T02:29:26.061Z,8.02
2023-04-16T02:32:00.526Z,8.02
2023-04-16T02:34:29.133Z,12.38
2023-04-16T02:36:58.282Z,10.05
2023-04-16T02:39:25.502Z,9.32
2023-04-16T02:41:53.386Z,8.43
2023-04-16T02:44:21.645Z,8.07
2023-04-16T02:46:48.487Z,14.10
2023-04-16T02:49:15.641Z,10.82
2023-04-16T02:51:42.476Z,14.27
2023-04-16T02:54:09.320Z,12.43
2023-04-16T02:56:36.351Z,13.30
2023-04-16T02:59:03.226Z,15.60
2023-04-16T03:01:30.391Z,16.33
2023-04-16T03:03:57.507Z,16.33
2023-04-16T03:06:24.398Z,15.07
2023-04-16T03:08:51.220Z,18.77
2023-04-16T03:11:18.125Z,18.67
2023-04-16T03:13:45.244Z,23.83
2023-04-16T03:16:12.187Z,20.30
2023-04-16T03:18:39.384Z,21.65
2023-04-16T03:21:06.322Z,22.85
2023-04-16T03:23:33.631Z,18.73
2023-04-16T03:26:00.543Z,20.10
2023-04-16T03:28:28.086Z,19.60
2023-04-16T03:30:54.930Z,23.95
2023-04-16T03:33:22.703Z,21.58
2023-04-16T03:35:57.612Z,25.20
2023-04-16T03:38:26.745Z,25.60
2023-04-16T03:40:56.121Z,27.20
2023-04-16T03:43:23.071Z,32.28
2023-04-16T03:45:50.233Z,29.55
2023-04-16T03:48:19.912Z,25.25
2023-04-16T03:50:49.615Z,22.48
2023-04-16T03:53:19.031Z,23.17
2023-04-16T03:55:50.505Z,23.17
2023-04-16T03:58:17.899Z,23.80
2023-04-16T04:00:44.738Z,23.58
2023-04-16T04:03:17.263Z,22.55
2023-04-16T04:05:46.128Z,23.35
2023-04-16T04:08:15.970Z,29.08
2023-04-16T04:10:42.788Z,22.40
2023-04-16T04:13:11.534Z,30.02
2023-04-16T04:15:38.577Z,25.77
2023-04-16T04:18:05.615Z,26.58
2023-04-16T04:20:32.682Z,25.00
2023-04-16T04:22:59.578Z,23.55
2023-04-16T04:25:27.236Z,23.27
2023-04-16T04:27:54.071Z,23.90
2023-04-16T04:30:20.926Z,23.08
2023-04-16T04:32:47.804Z,24.65
2023-04-16T04:35:16.315Z,25.25
2023-04-16T04:37:43.341Z,24.65
2023-04-16T04:40:20.602Z,23.48
2023-04-16T04:42:47.548Z,26.08
2023-04-16T04:45:15.297Z,23.90
2023-04-16T04:47:42.171Z,27.52
2023-04-16T04:50:09.642Z,29.17
2023-04-16T04:52:36.757Z,25.83
2023-04-16T04:55:03.884Z,23.83
2023-04-16T04:57:30.946Z,24.02
2023-04-16T04:59:58.103Z,24.63
2023-04-16T05:02:25.075Z,25.27
2023-04-16T05:04:52.036Z,25.65
2023-04-16T05:07:18.846Z,23.60
2023-04-16T05:09:45.805Z,24.55
2023-04-16T05:12:12.580Z,25.73
2023-04-16T05:14:39.395Z,27.27
2023-04-16T05:17:08.065Z,24.75
2023-04-16T05:19:35.362Z,24.13
2023-04-16T05:22:02.747Z,21.75
2023-04-16T05:24:29.620Z,20.27
2023-04-16T05:26:57.310Z,22.27
2023-04-16T05:29:24.266Z,26.45
2023-04-16T05:31:51.152Z,23.90
2023-04-16T05:34:18.024Z,27.35
2023-04-16T05:36:44.841Z,22.95
2023-04-16T05:39:11.904Z,21.83
2023-04-16T05:41:38.782Z,20.15
2023-04-16T05:44:05.779Z,21.25
2023-04-16T05:46:32.740Z,20.73
2023-04-16T05:48:59.649Z,24.58
2023-04-16T05:51:27.683Z,23.10
2023-04-16T05:53:54.547Z,23.23
2023-04-16T05:56:22.008Z,24.75
2023-04-16T05:58:48.849Z,24.50
2023-04-16T06:01:15.810Z,24.55
2023-04-16T06:03:42.745Z,23.10
2023-04-16T06:06:09.609Z,27.55
2023-04-16T06:08:36.478Z,29.83
2023-04-16T06:11:03.701Z,35.00
2023-04-16T06:13:30.970Z,33.83
2023-04-16T06:15:57.783Z,31.77
2023-04-16T06:18:24.675Z,30.05
2023-04-16T06:20:51.545Z,25.25
2023-04-16T06:23:18.357Z,30.83
2023-04-16T06:25:45.269Z,24.73
2023-04-16T06:28:12.082Z,27.90
2023-04-16T06:30:39.499Z,23.75
2023-04-16T06:33:06.303Z,27.80
2023-04-16T06:35:33.174Z,24.77
2023-04-16T06:37:59.997Z,24.98
2023-04-16T06:40:26.892Z,22.55
2023-04-16T06:42:54.124Z,18.85
2023-04-16T06:45:21.052Z,19.35
2023-04-16T06:47:53.788Z,18.27
2023-04-16T06:50:21.317Z,17.83
2023-04-16T06:52:48.148Z,22.42
2023-04-16T06:55:15.117Z,18.58
2023-04-16T06:57:42.002Z,16.75
2023-04-16T07:00:09.271Z,17.45
2023-04-16T07:02:36.196Z,14.13
2023-04-16T07:05:03.241Z,10.60
2023-04-16T07:07:31.668Z,14.13
2023-04-16T07:10:00.227Z,17.38
2023-04-16T07:12:27.291Z,8.65
2023-04-16T07:14:54.192Z,12.57
2023-04-16T07:17:21.037Z,14.40
2023-04-16T07:19:47.957Z,17.63
2023-04-16T07:22:14.780Z,13.00
2023-04-16T07:24:41.633Z,9.35
2023-04-16T07:27:08.409Z,12.65
2023-04-16T07:29:35.369Z,9.13
2023-04-16T07:32:02.241Z,10.93
2023-04-16T07:34:29.131Z,11.85
2023-04-16T07:36:56.292Z,13.93
2023-04-16T07:39:23.101Z,13.90
2023-04-16T07:41:49.939Z,19.35
2023-04-16T07:44:17.196Z,13.23
2023-04-16T07:46:47.369Z,12.20
2023-04-16T07:49:14.807Z,9.85
2023-04-16T07:51:41.615Z,10.55
2023-04-16T07:54:08.432Z,8.32
2023-04-16T07:56:35.662Z,9.95
2023-04-16T07:59:11.109Z,10.23
2023-04-16T08:01:46.048Z,9.20
2023-04-16T08:04:14.321Z,10.35
2023-04-16T08:06:41.361Z,9.20
2023-04-16T08:09:08.478Z,12.27
2023-04-16T08:11:35.649Z,13.63
2023-04-16T08:14:02.557Z,12.05
2023-04-16T08:16:29.350Z,11.50
2023-04-16T08:18:56.159Z,9.18
2023-04-16T08:21:22.951Z,10.93
2023-04-16T08:23:49.752Z,11.73
2023-04-16T08:26:17.541Z,11.73
2023-04-16T08:28:44.370Z,9.60
2023-04-16T08:31:11.373Z,11.65
2023-04-16T08:33:38.249Z,13.98
2023-04-16T08:36:05.582Z,11.20
2023-04-16T08:38:32.428Z,26.35
2023-04-16T08:41:02.535Z,13.73
2023-04-16T08:43:29.417Z,10.45
2023-04-16T08:45:57.047Z,12.27
2023-04-16T08:48:23.957Z,11.90
2023-04-16T08:50:52.489Z,16.60
2023-04-16T08:53:23.309Z,13.15
2023-04-16T08:55:50.722Z,12.88
2023-04-16T08:58:22.393Z,20.42
2023-04-16T09:00:49.344Z,14.18
2023-04-16T09:03:16.676Z,14.77
2023-04-16T09:05:43.779Z,10.38
2023-04-16T09:08:10.664Z,13.98
2023-04-16T09:10:37.467Z,14.00
2023-04-16T09:13:04.407Z,14.02
2023-04-16T09:15:31.720Z,13.85
2023-04-16T09:17:59.729Z,10.85
2023-04-16T09:20:26.615Z,12.77
2023-04-16T09:22:53.439Z,10.82
2023-04-16T09:25:22.120Z,14.20
2023-04-16T09:27:56.912Z,13.35
2023-04-16T09:30:33.348Z,9.98
2023-04-16T09:33:23.215Z,10.32
2023-04-16T09:35:53.761Z,10.27
2023-04-16T09:38:20.801Z,11.30
2023-04-16T09:40:47.843Z,10.60
2023-04-16T09:43:15.803Z,12.18
2023-04-16T09:45:50.825Z,11.85
2023-04-16T09:48:30.017Z,12.10
2023-04-16T09:50:57.060Z,11.85
2023-04-16T09:53:28.126Z,12.85
2023-04-16T09:55:58.821Z,12.93
2023-04-16T09:58:25.816Z,11.93
2023-04-16T10:00:57.412Z,9.07
2023-04-16T10:03:34.480Z,12.75
2023-04-16T10:06:09.275Z,11.70
2023-04-16T10:08:36.329Z,13.63
2023-04-16T10:11:03.354Z,17.45
2023-04-16T10:13:31.289Z,19.02
2023-04-16T10:15:58.813Z,23.05
2023-04-16T10:18:25.728Z,20.55
2023-04-16T10:20:52.550Z,15.63
2023-04-16T10:23:21.663Z,48.45
2023-04-16T10:25:49.525Z,25.67
2023-04-16T10:28:16.944Z,17.05
2023-04-16T10:30:52.776Z,14.43
2023-04-16T10:33:26.848Z,14.63
2023-04-16T10:36:09.916Z,16.05
2023-04-16T10:38:39.397Z,13.75
2023-04-16T10:41:06.712Z,12.85
2023-04-16T10:43:40.603Z,15.48
2023-04-16T10:46:24.795Z,15.45
2023-04-16T10:48:53.875Z,12.77
2023-04-16T10:51:31.448Z,13.93
2023-04-16T10:54:14.598Z,15.50
2023-04-16T10:56:41.516Z,9.38
2023-04-16T10:59:10.378Z,10.98
2023-04-16T11:01:41.065Z,11.05
2023-04-16T11:04:20.303Z,9.73
2023-04-16T11:07:15.564Z,12.93
2023-04-16T11:09:54.453Z,10.02
2023-04-16T11:12:27.209Z,11.25
2023-04-16T11:14:56.285Z,12.45
2023-04-16T11:17:23.441Z,12.95
2023-04-16T11:19:50.435Z,11.85
2023-04-16T11:22:20.499Z,11.52
2023-04-16T11:24:47.435Z,10.82
2023-04-16T11:27:15.245Z,7.03
2023-04-16T11:29:42.145Z,10.25
2023-04-16T11:32:09.222Z,7.47
2023-04-16T11:34:44.850Z,7.25
2023-04-16T11:37:11.679Z,5.05
2023-04-16T11:39:53.290Z,4.63
2023-04-16T11:42:22.698Z,5.70
2023-04-16T11:44:56.777Z,5.50
2023-04-16T11:47:24.151Z,7.60
2023-04-16T11:49:51.551Z,6.82
2023-04-16T11:52:29.071Z,6.07
2023-04-16T11:54:56.375Z,6.55
2023-04-16T11:57:30.456Z,10.32
2023-04-16T12:00:01.635Z,4.85
2023-04-16T12:02:46.345Z,8.20
2023-04-16T12:05:33.885Z,6.20
2023-04-16T12:08:07.266Z,5.38
2023-04-16T12:10:35.790Z,7.40
2023-04-16T12:13:15.724Z,7.07
2023-04-16T12:15:56.156Z,7.32
2023-04-16T12:18:24.575Z,11.00
2023-04-16T12:20:51.547Z,11.32
2023-04-16T12:23:28.850Z,10.05
2023-04-16T12:25:55.730Z,9.02
2023-04-16T12:28:30.248Z,9.77
2023-04-16T12:30:57.672Z,11.50
2023-04-16T12:33:24.522Z,11.52
2023-04-16T12:35:51.408Z,11.45
2023-04-16T12:38:18.272Z,10.73
2023-04-16T12:40:45.449Z,10.82
2023-04-16T12:43:12.373Z,7.13
2023-04-16T12:45:42.209Z,8.35
2023-04-16T12:48:09.017Z,8.52
2023-04-16T12:50:35.814Z,7.60
2023-04-16T12:53:02.609Z,7.18
2023-04-16T12:55:29.479Z,10.45
2023-04-16T12:57:56.448Z,9.88
2023-04-16T13:00:23.561Z,11.93
2023-04-16T13:02:50.461Z,13.50
2023-04-16T13:05:19.296Z,17.10
2023-04-16T13:07:46.327Z,18.33
2023-04-16T13:10:13.820Z,16.13
2023-04-16T13:12:40.709Z,17.23
2023-04-16T13:15:08.215Z,20.13
2023-04-16T13:17:35.140Z,18.23
2023-04-16T13:20:02.001Z,14.98
2023-04-16T13:22:28.805Z,15.88
2023-04-16T13:24:55.622Z,16.52
2023-04-16T13:27:22.471Z,13.98
2023-04-16T13:29:49.319Z,20.73
2023-04-16T13:32:16.150Z,18.55
2023-04-16T13:34:42.989Z,18.75
2023-04-16T13:37:09.806Z,16.85
2023-04-16T13:39:36.717Z,19.23
2023-04-16T13:42:03.567Z,16.75
2023-04-16T13:44:30.466Z,20.27
2023-04-16T13:46:57.482Z,17.90
2023-04-16T13:49:24.465Z,18.55
2023-04-16T13:51:51.288Z,17.77
2023-04-16T13:54:18.079Z,23.48
2023-04-16T13:56:44.973Z,24.98
2023-04-16T13:59:11.917Z,20.23
2023-04-16T14:01:38.804Z,24.58
2023-04-16T14:04:07.120Z,23.48
2023-04-16T14:06:34.492Z,23.60
2023-04-16T14:09:01.888Z,19.55
2023-04-16T14:11:28.846Z,21.65
2023-04-16T14:13:55.882Z,22.65
2023-04-16T14:16:23.001Z,21.50
2023-04-16T14:18:51.807Z,26.85
2023-04-16T14:21:18.771Z,37.33
2023-04-16T14:23:45.642Z,28.77
2023-04-16T14:26:12.465Z,20.88
2023-04-16T14:28:40.844Z,31.15
2023-04-16T14:31:07.752Z,25.48
2023-04-16T14:33:34.615Z,23.85
2023-04-16T14:36:03.204Z,24.35
2023-04-16T14:38:31.219Z,23.15
2023-04-16T14:40:58.155Z,32.80
2023-04-16T14:43:25.008Z,43.75
2023-04-16T14:45:52.831Z,29.60
2023-04-16T14:48:19.736Z,25.40
2023-04-16T14:50:46.639Z,28.73
2023-04-16T14:53:13.461Z,22.02
2023-04-16T14:55:40.363Z,22.33
2023-04-16T14:58:07.281Z,21.98
2023-04-16T15:00:37.577Z,25.92
2023-04-16T15:03:05.162Z,20.40
2023-04-16T15:05:32.220Z,19.60
2023-04-16T15:07:59.145Z,18.98
2023-04-16T15:10:26.073Z,20.67
2023-04-16T15:12:52.864Z,17.38
2023-04-16T15:15:19.790Z,19.67
2023-04-16T15:17:46.791Z,18.08
2023-04-16T15:20:13.815Z,25.27
2023-04-16T15:22:40.709Z,21.25
2023-04-16T15:25:08.193Z,23.45
2023-04-16T15:27:35.067Z,26.60
2023-04-16T15:30:02.130Z,20.70
2023-04-16T15:32:29.114Z,29.55
2023-04-16T15:34:55.980Z,31.30
2023-04-16T15:37:22.861Z,24.15
2023-04-16T15:39:49.937Z,23.25
2023-04-16T15:42:16.835Z,22.05
2023-04-16T15:44:43.754Z,21.52
2023-04-16T15:47:10.846Z,24.02
2023-04-16T15:49:37.789Z,20.48
2023-04-16T15:52:04.882Z,22.08
2023-04-16T15:54:32.040Z,19.75
2023-04-16T15:56:59.102Z,20.27
2023-04-16T15:59:26.777Z,20.50
2023-04-16T16:01:53.790Z,19.83
2023-04-16T16:04:23.141Z,21.52
2023-04-16T16:06:50.795Z,18.15
2023-04-16T16:09:17.938Z,18.58
2023-04-16T16:11:44.792Z,21.65
2023-04-16T16:14:11.828Z,24.20
2023-04-16T16:16:39.823Z,22.60
2023-04-16T16:19:06.995Z,20.55
2023-04-16T16:21:34.006Z,19.30
2023-04-16T16:24:01.174Z,27.45
2023-04-16T16:26:28.274Z,27.17
2023-04-16T16:28:55.285Z,23.42
2023-04-16T16:31:22.121Z,22.83
2023-04-16T16:33:49.167Z,21.50
2023-04-16T16:36:16.161Z,26.13
2023-04-16T16:38:43.080Z,24.67
2023-04-16T16:41:09.916Z,32.42
2023-04-16T16:43:36.789Z,34.22
2023-04-16T16:46:03.905Z,34.20
2023-04-16T16:48:38.490Z,26.55
2023-04-16T16:51:11.574Z,24.45
2023-04-16T16:53:39.528Z,27.20
2023-04-16T16:56:06.871Z,22.30
2023-04-16T16:58:33.767Z,23.00
2023-04-16T17:01:00.774Z,21.25
2023-04-16T17:03:27.760Z,21.80
2023-04-16T17:05:54.808Z,26.33
2023-04-16T17:08:21.611Z,23.30
2023-04-16T17:10:48.595Z,26.30
2023-04-16T17:13:19.710Z,23.85
2023-04-16T17:15:46.945Z,23.30
2023-04-16T17:18:13.901Z,24.23
2023-04-16T17:20:41.050Z,19.77
2023-04-16T17:23:07.976Z,23.15
2023-04-16T17:25:34.814Z,19.77
2023-04-16T17:28:02.043Z,20.52
2023-04-16T17:30:31.097Z,26.70
2023-04-16T17:32:57.994Z,24.67
2023-04-16T17:35:25.040Z,24.42
2023-04-16T17:37:52.002Z,19.90
2023-04-16T17:40:18.979Z,21.95
2023-04-16T17:42:46.181Z,20.95
2023-04-16T17:45:13.406Z,22.85
2023-04-16T17:47:40.706Z,25.58
2023-04-16T17:50:09.223Z,26.33
2023-04-16T17:52:37.509Z,23.02
2023-04-16T17:55:05.944Z,22.17
2023-04-16T17:57:32.771Z,21.80
2023-04-16T17:59:59.648Z,22.98
2023-04-16T18:02:26.659Z,25.98
2023-04-16T18:04:53.856Z,21.80
2023-04-16T18:07:20.982Z,42.13
2023-04-16T18:09:47.925Z,29.70
2023-04-16T18:12:14.930Z,27.80
2023-04-16T18:14:45.105Z,25.77
2023-04-16T18:17:13.055Z,26.83
2023-04-16T18:19:41.349Z,27.48
2023-04-16T18:22:08.412Z,32.58
2023-04-16T18:24:36.568Z,32.53
2023-04-16T18:27:03.825Z,28.10
2023-04-16T18:29:33.678Z,33.95
2023-04-16T18:32:04.167Z,25.52
2023-04-16T18:34:32.448Z,22.00
2023-04-16T18:36:59.382Z,18.27
2023-04-16T18:39:26.474Z,20.02
2023-04-16T18:41:54.346Z,18.45
2023-04-16T18:44:21.610Z,18.95
2023-04-16T18:46:48.586Z,21.38
2023-04-16T18:49:15.760Z,27.80
2023-04-16T18:51:42.602Z,20.50
2023-04-16T18:54:09.444Z,26.70
2023-04-16T18:56:36.834Z,28.42
2023-04-16T18:59:03.788Z,22.35
2023-04-16T19:01:31.065Z,25.13
2023-04-16T19:03:58.156Z,18.95
2023-04-16T19:06:25.084Z,20.50
2023-04-16T19:08:52.426Z,25.98
2023-04-16T19:11:19.337Z,27.42
2023-04-16T19:13:46.380Z,25.40
2023-04-16T19:16:13.323Z,29.50
2023-04-16T19:18:40.324Z,23.35
2023-04-16T19:21:07.367Z,21.30
2023-04-16T19:23:34.316Z,25.65
2023-04-16T19:26:01.734Z,26.77
2023-04-16T19:28:28.795Z,22.73
2023-04-16T19:30:56.040Z,30.60
2023-04-16T19:33:23.052Z,27.52
2023-04-16T19:35:49.906Z,25.50
2023-04-16T19:38:16.708Z,24.45
2023-04-16T19:40:47.887Z,29.77
2023-04-16T19:43:15.066Z,30.85
2023-04-16T19:45:46.193Z,21.27
2023-04-16T19:48:13.293Z,24.52
2023-04-16T19:50:42.133Z,24.55
2023-04-16T19:53:10.588Z,23.70
2023-04-16T19:55:39.541Z,23.77
2023-04-16T19:58:06.552Z,24.23
2023-04-16T20:00:39.401Z,32.38
2023-04-16T20:03:06.399Z,26.48
2023-04-16T20:05:33.342Z,28.45
2023-04-16T20:08:00.362Z,21.88
2023-04-16T20:10:27.834Z,27.48
2023-04-16T20:12:54.651Z,24.55
2023-04-16T20:15:22.745Z,23.02
2023-04-16T20:17:49.744Z,20.98
2023-04-16T20:20:17.092Z,22.48
2023-04-16T20:22:43.994Z,23.70
2023-04-16T20:25:11.477Z,25.15
2023-04-16T20:27:38.430Z,23.70
2023-04-16T20:30:06.333Z,24.98
2023-04-16T20:32:33.401Z,26.20
2023-04-16T20:35:00.345Z,24.52
2023-04-16T20:37:29.100Z,20.83
2023-04-16T20:39:56.314Z,21.67
2023-04-16T20:42:23.507Z,23.45
2023-04-16T20:44:50.658Z,26.77
2023-04-16T20:47:17.543Z,27.63
2023-04-16T20:49:47.828Z,23.08
2023-04-16T20:52:14.754Z,30.67
2023-04-16T20:54:41.584Z,31.10
2023-04-16T20:57:08.383Z,27.70
2023-04-16T20:59:36.903Z,31.17
2023-04-16T21:02:03.907Z,27.08
2023-04-16T21:04:31.000Z,30.15
2023-04-16T21:06:58.066Z,28.45
2023-04-16T21:09:24.893Z,30.63
2023-04-16T21:11:51.729Z,32.10
2023-04-16T21:14:18.681Z,27.95
2023-04-16T21:16:45.568Z,28.73
2023-04-16T21:19:12.496Z,26.83
2023-04-16T21:21:39.706Z,36.30
2023-04-16T21:24:06.968Z,33.50
2023-04-16T21:26:33.874Z,32.00
2023-04-16T21:29:00.705Z,33.28
2023-04-16T21:31:27.693Z,37.55
2023-04-16T21:33:54.567Z,35.88
2023-04-16T21:36:21.406Z,41.97
2023-04-16T21:38:48.265Z,37.88
2023-04-16T21:41:15.071Z,33.17
2023-04-16T21:43:41.942Z,35.00
2023-04-16T21:46:08.753Z,34.65
2023-04-16T21:48:35.640Z,35.63
2023-04-16T21:51:07.013Z,38.42
2023-04-16T21:53:34.106Z,36.17
2023-04-16T21:56:01.020Z,39.05
2023-04-16T21:58:27.985Z,31.33
2023-04-16T22:00:54.901Z,32.75
2023-04-16T22:03:30.466Z,35.15
2023-04-16T22:06:03.312Z,35.08
2023-04-16T22:08:30.616Z,28.90
2023-04-16T22:10:59.282Z,36.00
2023-04-16T22:13:26.439Z,32.00
2023-04-16T22:15:54.391Z,31.90
2023-04-16T22:18:21.289Z,35.20
2023-04-16T22:20:50.711Z,30.42
2023-04-16T22:23:17.716Z,37.67
2023-04-16T22:25:44.732Z,42.15
2023-04-16T22:28:11.560Z,37.45
2023-04-16T22:30:38.388Z,45.20
2023-04-16T22:33:05.495Z,36.90
2023-04-16T22:35:32.717Z,35.80
2023-04-16T22:37:59.563Z,39.72
2023-04-16T22:40:26.356Z,37.30
2023-04-16T22:42:53.261Z,44.08
2023-04-16T22:45:20.089Z,43.85
2023-04-16T22:47:46.969Z,42.15
2023-04-16T22:50:13.907Z,38.85
2023-04-16T22:52:40.692Z,42.83
2023-04-16T22:55:08.258Z,39.30
2023-04-16T22:57:35.117Z,39.50
2023-04-16T23:00:01.999Z,40.08
2023-04-16T23:02:28.889Z,39.53
2023-04-16T23:04:56.054Z,44.00
2023-04-16T23:07:22.905Z,49.17
2023-04-16T23:09:49.793Z,47.83
2023-04-16T23:12:16.673Z,42.88
2023-04-16T23:14:46.172Z,42.15
2023-04-16T23:17:13.813Z,45.45
2023-04-16T23:19:40.677Z,40.40
2023-04-16T23:22:07.669Z,40.30
2023-04-16T23:24:34.516Z,42.08
2023-04-16T23:27:01.459Z,41.05
2023-04-16T23:29:28.341Z,34.95
2023-04-16T23:31:55.187Z,40.80
2023-04-16T23:34:22.233Z,42.42
2023-04-16T23:36:49.053Z,41.65
2023-04-16T23:39:15.925Z,40.55
2023-04-16T23:41:42.698Z,43.45
2023-04-16T23:44:09.560Z,42.20
2023-04-16T23:46:36.376Z,45.10
2023-04-16T23:49:03.443Z,35.95
2023-04-16T23:51:31.561Z,34.15
2023-04-16T23:53:58.385Z,34.78
2023-04-16T23:56:25.403Z,40.88
2023-04-16T23:58:52.276Z,41.20
